createdAt,value
2022-10-28T00:00:38.078Z,101545.94
2022-10-28T00:03:04.723Z,101532.13
2022-10-28T00:05:34.517Z,101534.41
2022-10-28T00:08:01.248Z,101530.94
2022-10-28T00:10:27.987Z,101520.38
2022-10-28T00:12:54.596Z,101533.72
2022-10-28T00:15:21.185Z,101544.81
2022-10-28T00:17:47.943Z,101536.63
2022-10-28T00:20:15.862Z,101541.69
2022-10-28T00:22:43.273Z,101544.94
2022-10-28T00:25:10.498Z,101541.69
2022-10-28T00:27:37.159Z,101548.94
2022-10-28T00:30:04.308Z,101544.06
2022-10-28T00:32:32.012Z,101535.69
2022-10-28T00:34:58.602Z,101538.81
2022-10-28T00:37:25.313Z,101541.44
2022-10-28T00:39:51.974Z,101539.56
2022-10-28T00:42:22.257Z,101530.41
2022-10-28T00:45:02.337Z,101526.16
2022-10-28T00:47:38.034Z,101529.44
2022-10-28T00:50:24.375Z,101512.66
2022-10-28T00:52:56.426Z,101506.56
2022-10-28T00:55:23.983Z,101503.63
2022-10-28T00:57:51.164Z,101512.41
2022-10-28T01:00:18.417Z,101517.22
2022-10-28T01:02:48.408Z,101512.88
2022-10-28T01:05:19.251Z,101509.00
2022-10-28T01:07:46.030Z,101519.13
2022-10-28T01:10:15.065Z,101513.09
2022-10-28T01:12:48.759Z,101516.25
2022-10-28T01:15:33.744Z,101516.25
2022-10-28T01:18:21.805Z,101512.28
2022-10-28T01:21:16.263Z,101504.75
2022-10-28T01:23:53.072Z,101497.44
2022-10-28T01:27:13.255Z,101497.63
2022-10-28T01:30:17.041Z,101491.28
2022-10-28T01:32:55.847Z,101487.47
2022-10-28T01:35:37.445Z,101487.22
2022-10-28T01:38:12.377Z,101480.09
2022-10-28T01:40:49.369Z,101478.09
2022-10-28T01:43:33.635Z,101491.34
2022-10-28T01:46:05.944Z,101469.88
2022-10-28T01:48:39.993Z,101477.63
2022-10-28T01:51:13.179Z,101487.09
2022-10-28T01:53:42.764Z,101477.56
2022-10-28T01:56:14.410Z,101483.72
2022-10-28T01:58:42.993Z,101479.19
2022-10-28T02:01:11.126Z,101470.53
2022-10-28T02:03:38.201Z,101482.31
2022-10-28T02:06:12.522Z,101478.16
2022-10-28T02:08:42.328Z,101494.34
2022-10-28T02:11:18.000Z,101493.25
2022-10-28T02:13:54.211Z,101493.09
2022-10-28T02:16:49.370Z,101491.19
2022-10-28T02:19:33.813Z,101482.31
2022-10-28T02:22:00.496Z,101481.94
2022-10-28T02:24:56.938Z,101483.59
2022-10-28T02:27:42.504Z,101476.31
2022-10-28T02:30:14.171Z,101479.50
2022-10-28T02:32:47.020Z,101481.16
2022-10-28T02:35:18.747Z,101479.50
2022-10-28T02:37:48.715Z,101481.78
2022-10-28T02:40:21.444Z,101479.94
2022-10-28T02:42:53.204Z,101481.41
2022-10-28T02:45:25.316Z,101491.44
2022-10-28T02:47:57.066Z,101482.22
2022-10-28T02:50:30.640Z,101475.53
2022-10-28T02:52:58.843Z,101480.50
2022-10-28T02:55:33.889Z,101460.03
2022-10-28T02:58:00.501Z,101475.06
2022-10-28T03:00:27.099Z,101475.44
2022-10-28T03:02:54.203Z,101471.47
2022-10-28T03:05:20.873Z,101483.69
2022-10-28T03:07:47.488Z,101475.91
2022-10-28T03:10:14.150Z,101460.81
2022-10-28T03:12:40.996Z,101468.34
2022-10-28T03:15:08.179Z,101463.63
2022-10-28T03:17:34.867Z,101458.38
2022-10-28T03:20:01.529Z,101457.19
2022-10-28T03:22:28.198Z,101454.03
2022-10-28T03:24:55.021Z,101453.19
2022-10-28T03:27:21.693Z,101468.50
2022-10-28T03:29:48.253Z,101458.97
2022-10-28T03:32:14.846Z,101448.84
2022-10-28T03:34:41.489Z,101453.66
2022-10-28T03:37:08.375Z,101452.81
2022-10-28T03:39:34.950Z,101440.19
2022-10-28T03:42:01.589Z,101454.38
2022-10-28T03:44:28.225Z,101461.72
2022-10-28T03:46:54.850Z,101441.06
2022-10-28T03:49:21.660Z,101448.84
2022-10-28T03:51:48.225Z,101459.34
2022-10-28T03:54:14.734Z,101454.44
2022-10-28T03:56:41.482Z,101455.72
2022-10-28T03:59:13.185Z,101464.59
2022-10-28T04:01:42.161Z,101457.78
2022-10-28T04:04:08.815Z,101465.63
2022-10-28T04:06:35.603Z,101451.81
2022-10-28T04:09:03.297Z,101468.44
2022-10-28T04:11:29.949Z,101465.44
2022-10-28T04:13:56.515Z,101463.63
2022-10-28T04:16:23.109Z,101457.00
2022-10-28T04:18:49.712Z,101462.50
2022-10-28T04:21:17.308Z,101462.03
2022-10-28T04:23:43.853Z,101444.63
2022-10-28T04:26:10.375Z,101443.25
2022-10-28T04:28:36.949Z,101448.56
2022-10-28T04:31:03.640Z,101455.69
2022-10-28T04:33:30.489Z,101447.22
2022-10-28T04:35:57.102Z,101457.19
2022-10-28T04:40:52.153Z,101455.81
2022-10-28T04:43:18.736Z,101459.25
2022-10-28T04:45:47.356Z,101459.56
2022-10-28T04:48:13.993Z,101452.44
2022-10-28T04:50:40.865Z,101434.66
2022-10-28T04:53:11.148Z,101430.75
2022-10-28T04:55:37.970Z,101442.13
2022-10-28T04:58:05.342Z,101445.19
2022-10-28T05:00:32.049Z,101438.66
2022-10-28T05:03:01.688Z,101445.72
2022-10-28T05:05:28.688Z,101455.03
2022-10-28T05:07:55.917Z,101451.16
2022-10-28T05:10:22.855Z,101451.00
2022-10-28T05:12:49.410Z,101436.41
2022-10-28T05:15:16.695Z,101437.41
2022-10-28T05:17:44.750Z,101441.47
2022-10-28T05:20:12.051Z,101458.13
2022-10-28T05:22:44.765Z,101457.88
2022-10-28T05:25:11.412Z,101453.44
2022-10-28T05:27:38.091Z,101452.03
2022-10-28T05:30:05.193Z,101450.38
2022-10-28T05:32:31.766Z,101453.81
2022-10-28T05:34:58.568Z,101440.63
2022-10-28T05:37:25.106Z,101435.81
2022-10-28T05:39:51.681Z,101425.84
2022-10-28T05:42:18.168Z,101429.28
2022-10-28T05:44:44.783Z,101420.38
2022-10-28T05:47:11.581Z,101431.31
2022-10-28T05:49:38.174Z,101432.28
2022-10-28T05:52:05.080Z,101431.53
2022-10-28T05:54:31.722Z,101425.72
2022-10-28T05:56:58.380Z,101437.31
2022-10-28T05:59:25.111Z,101435.81
2022-10-28T06:01:51.688Z,101442.47
2022-10-28T06:04:18.779Z,101441.28
2022-10-28T06:06:45.359Z,101441.81
2022-10-28T06:09:11.925Z,101444.69
2022-10-28T06:11:36.974Z,101442.66
2022-10-28T06:14:03.825Z,101445.53
2022-10-28T06:16:30.592Z,101450.69
2022-10-28T06:18:57.282Z,101436.66
2022-10-28T06:21:23.867Z,101432.00
2022-10-28T06:23:51.181Z,101444.75
2022-10-28T06:26:17.856Z,101434.78
2022-10-28T06:28:47.230Z,101439.03
2022-10-28T06:31:13.993Z,101441.91
2022-10-28T06:33:40.798Z,101440.03
2022-10-28T06:36:07.733Z,101442.31
2022-10-28T06:38:34.320Z,101442.97
2022-10-28T06:41:00.779Z,101444.41
2022-10-28T06:43:27.415Z,101438.50
2022-10-28T06:45:55.211Z,101426.25
2022-10-28T06:48:23.927Z,101428.09
2022-10-28T06:50:50.528Z,101429.28
2022-10-28T06:53:17.122Z,101436.56
2022-10-28T06:55:48.695Z,101430.47
2022-10-28T06:58:15.590Z,101431.81
2022-10-28T07:00:42.355Z,101422.41
2022-10-28T07:03:10.759Z,101427.31
2022-10-28T07:05:37.568Z,101436.69
2022-10-28T07:08:04.600Z,101427.78
2022-10-28T07:10:31.188Z,101434.69
2022-10-28T07:12:58.110Z,101443.19
2022-10-28T07:15:25.200Z,101445.69
2022-10-28T07:17:56.770Z,101436.78
2022-10-28T07:20:25.043Z,101453.25
2022-10-28T07:23:02.053Z,101452.28
2022-10-28T07:25:30.814Z,101468.16
2022-10-28T07:27:58.640Z,101457.25
2022-10-28T07:30:25.964Z,101459.34
2022-10-28T07:32:52.911Z,101466.06
2022-10-28T07:35:20.334Z,101463.22
2022-10-28T07:37:47.194Z,101468.34
2022-10-28T07:40:15.228Z,101469.97
2022-10-28T07:42:41.846Z,101468.59
2022-10-28T07:45:08.775Z,101463.16
2022-10-28T07:47:35.399Z,101452.41
2022-10-28T07:50:02.196Z,101442.88
2022-10-28T07:52:28.807Z,101449.78
2022-10-28T07:54:55.403Z,101455.25
2022-10-28T07:57:21.949Z,101450.75
2022-10-28T07:59:48.929Z,101450.94
2022-10-28T08:02:20.861Z,101454.38
2022-10-28T08:04:47.794Z,101459.44
2022-10-28T08:07:15.373Z,101465.94
2022-10-28T08:09:42.032Z,101470.84
2022-10-28T08:12:09.725Z,101475.25
2022-10-28T08:14:36.289Z,101471.81
2022-10-28T08:17:02.946Z,101478.28
2022-10-28T08:19:29.540Z,101485.34
2022-10-28T08:21:56.205Z,101474.56
2022-10-28T08:24:23.123Z,101481.66
2022-10-28T08:26:49.909Z,101499.44
2022-10-28T08:29:16.674Z,101488.22
2022-10-28T08:31:43.419Z,101487.69
2022-10-28T08:34:11.358Z,101476.38
2022-10-28T08:36:37.959Z,101465.91
2022-10-28T08:39:04.725Z,101473.81
2022-10-28T08:41:38.404Z,101473.28
2022-10-28T08:44:11.092Z,101473.56
2022-10-28T08:46:37.597Z,101477.72
2022-10-28T08:49:11.939Z,101472.16
2022-10-28T08:52:14.143Z,101470.22
2022-10-28T08:54:50.496Z,101474.66
2022-10-28T08:57:27.404Z,101471.78
2022-10-28T08:59:54.901Z,101475.75
2022-10-28T09:02:24.739Z,101465.16
2022-10-28T09:05:21.579Z,101474.09
2022-10-28T09:07:48.631Z,101476.66
2022-10-28T09:10:17.911Z,101480.59
2022-10-28T09:13:31.400Z,101484.00
2022-10-28T09:16:15.229Z,101483.53
2022-10-28T09:18:50.288Z,101484.56
2022-10-28T09:21:37.444Z,101489.97
2022-10-28T09:24:17.085Z,101485.63
2022-10-28T09:27:00.427Z,101492.13
2022-10-28T09:29:49.485Z,101493.28
2022-10-28T09:33:01.077Z,101488.78
2022-10-28T09:35:32.085Z,101491.84
2022-10-28T09:38:23.304Z,101493.00
2022-10-28T09:40:55.277Z,101492.19
2022-10-28T09:43:35.253Z,101499.34
2022-10-28T09:46:13.743Z,101499.03
2022-10-28T09:48:52.194Z,101493.28
2022-10-28T09:51:43.315Z,101494.69
2022-10-28T09:54:11.490Z,101482.69
2022-10-28T09:56:38.710Z,101487.16
2022-10-28T09:59:05.896Z,101491.38
2022-10-28T10:01:34.998Z,101474.94
2022-10-28T10:04:03.175Z,101478.19
2022-10-28T10:06:37.371Z,101463.75
2022-10-28T10:09:04.874Z,101459.34
2022-10-28T10:11:41.423Z,101476.66
2022-10-28T10:14:13.265Z,101479.97
2022-10-28T10:16:52.659Z,101478.00
2022-10-28T10:19:19.239Z,101470.38
2022-10-28T10:21:48.298Z,101460.72
2022-10-28T10:24:35.215Z,101468.22
2022-10-28T10:27:10.999Z,101466.03
2022-10-28T10:29:44.858Z,101464.97
2022-10-28T10:32:31.787Z,101471.84
2022-10-28T10:35:06.968Z,101483.19
2022-10-28T10:37:35.497Z,101489.31
2022-10-28T10:40:33.671Z,101486.41
2022-10-28T10:43:19.208Z,101471.81
2022-10-28T10:46:00.533Z,101469.97
2022-10-28T10:48:28.868Z,101471.38
2022-10-28T10:50:56.325Z,101475.13
2022-10-28T10:53:28.964Z,101479.78
2022-10-28T10:56:10.841Z,101465.88
2022-10-28T10:58:49.692Z,101457.94
2022-10-28T11:01:21.570Z,101472.28
2022-10-28T11:04:05.993Z,101472.03
2022-10-28T11:06:36.542Z,101473.66
2022-10-28T11:09:19.660Z,101465.31
2022-10-28T11:11:46.376Z,101463.94
2022-10-28T11:14:13.395Z,101467.31
2022-10-28T11:16:50.620Z,101455.03
2022-10-28T11:19:26.633Z,101463.69
2022-10-28T11:22:21.906Z,101467.03
2022-10-28T11:25:26.712Z,101485.63
2022-10-28T11:28:33.473Z,101483.88
2022-10-28T11:31:15.354Z,101470.22
2022-10-28T11:34:13.480Z,101461.41
2022-10-28T11:36:48.479Z,101472.22
2022-10-28T11:39:19.864Z,101468.00
2022-10-28T11:41:55.881Z,101475.53
2022-10-28T11:44:41.592Z,101470.13
2022-10-28T11:47:45.815Z,101473.50
2022-10-28T11:50:43.585Z,101481.81
2022-10-28T11:53:50.685Z,101488.25
2022-10-28T11:56:39.316Z,101491.25
2022-10-28T11:59:11.787Z,101495.91
2022-10-28T12:01:50.681Z,101503.03
2022-10-28T12:04:19.218Z,101494.28
2022-10-28T12:07:07.791Z,101484.50
2022-10-28T12:09:52.831Z,101499.97
2022-10-28T12:12:31.129Z,101507.34
2022-10-28T12:15:13.804Z,101505.94
2022-10-28T12:18:03.907Z,101506.13
2022-10-28T12:20:59.313Z,101511.69
2022-10-28T12:23:29.452Z,101501.22
2022-10-28T12:25:58.969Z,101504.53
2022-10-28T12:28:49.872Z,101506.47
2022-10-28T12:31:24.505Z,101511.13
2022-10-28T12:33:56.670Z,101498.16
2022-10-28T12:36:52.442Z,101516.53
2022-10-28T12:39:22.052Z,101521.31
2022-10-28T12:41:57.752Z,101517.91
2022-10-28T12:44:26.343Z,101520.16
2022-10-28T12:47:28.334Z,101519.19
2022-10-28T12:50:10.843Z,101524.81
2022-10-28T12:53:17.324Z,101533.38
2022-10-28T12:56:01.533Z,101526.75
2022-10-28T12:58:35.139Z,101526.75
2022-10-28T13:01:10.582Z,101521.31
2022-10-28T13:03:37.437Z,101532.16
2022-10-28T13:06:19.050Z,101518.19
2022-10-28T13:09:11.353Z,101517.03
2022-10-28T13:12:08.841Z,101545.47
2022-10-28T13:14:57.471Z,101541.81
2022-10-28T13:17:50.925Z,101542.91
2022-10-28T13:20:20.678Z,101540.63
2022-10-28T13:23:22.911Z,101542.75
2022-10-28T13:26:22.074Z,101539.06
2022-10-28T13:28:52.622Z,101539.34
2022-10-28T13:31:20.404Z,101544.66
2022-10-28T13:33:59.077Z,101562.84
2022-10-28T13:36:28.777Z,101569.06
2022-10-28T13:39:01.747Z,101569.22
2022-10-28T13:41:37.682Z,101564.69
2022-10-28T13:44:10.825Z,101561.56
2022-10-28T13:46:59.265Z,101570.38
2022-10-28T13:49:26.890Z,101571.16
2022-10-28T13:52:19.119Z,101584.97
2022-10-28T13:54:45.919Z,101586.97
2022-10-28T13:57:34.808Z,101581.59
2022-10-28T14:00:02.926Z,101581.09
2022-10-28T14:02:38.916Z,101556.84
2022-10-28T14:05:11.713Z,101570.63
2022-10-28T14:07:53.567Z,101573.41
2022-10-28T14:10:25.072Z,101567.25
2022-10-28T14:12:56.235Z,101569.56
2022-10-28T14:15:28.003Z,101561.97
2022-10-28T14:18:22.658Z,101563.50
2022-10-28T14:20:49.837Z,101561.66
2022-10-28T14:23:22.473Z,101573.81
2022-10-28T14:25:54.565Z,101584.06
2022-10-28T14:28:27.481Z,101591.56
2022-10-28T14:31:12.953Z,101579.66
2022-10-28T14:33:42.539Z,101581.06
2022-10-28T14:36:21.306Z,101595.75
2022-10-28T14:39:03.309Z,101585.47
2022-10-28T14:42:01.085Z,101602.81
2022-10-28T14:44:51.134Z,101600.38
2022-10-28T14:47:39.662Z,101612.09
2022-10-28T14:50:25.007Z,101603.16
2022-10-28T14:52:54.093Z,101595.94
2022-10-28T14:55:25.934Z,101590.88
2022-10-28T14:57:53.376Z,101606.72
2022-10-28T15:00:25.220Z,101610.31
2022-10-28T15:02:52.538Z,101600.00
2022-10-28T15:05:20.875Z,101607.88
2022-10-28T15:07:48.426Z,101603.38
2022-10-28T15:10:38.273Z,101612.50
2022-10-28T15:13:15.583Z,101601.19
2022-10-28T15:15:52.105Z,101615.38
2022-10-28T15:18:22.355Z,101605.47
2022-10-28T15:20:50.127Z,101605.59
2022-10-28T15:23:18.757Z,101616.44
2022-10-28T15:25:45.725Z,101612.28
2022-10-28T15:28:13.664Z,101622.19
2022-10-28T15:30:46.397Z,101623.94
2022-10-28T15:33:21.021Z,101629.03
2022-10-28T15:35:48.480Z,101625.69
2022-10-28T15:38:21.362Z,101629.38
2022-10-28T15:40:48.427Z,101608.22
2022-10-28T15:43:23.219Z,101619.66
2022-10-28T15:45:50.035Z,101618.63
2022-10-28T15:48:27.570Z,101632.81
2022-10-28T15:51:17.540Z,101630.25
2022-10-28T15:53:45.426Z,101654.56
2022-10-28T15:56:15.140Z,101653.28
2022-10-28T15:58:44.157Z,101638.00
2022-10-28T16:01:34.195Z,101656.47
2022-10-28T16:04:01.266Z,101666.00
2022-10-28T16:06:36.859Z,101661.66
2022-10-28T16:09:09.658Z,101678.91
2022-10-28T16:11:45.706Z,101683.91
2022-10-28T16:14:37.670Z,101662.75
2022-10-28T16:17:18.136Z,101670.25
2022-10-28T16:19:51.104Z,101680.06
2022-10-28T16:22:19.314Z,101676.22
2022-10-28T16:24:46.189Z,101684.19
2022-10-28T16:27:20.681Z,101685.91
2022-10-28T16:29:47.924Z,101689.06
2022-10-28T16:32:16.115Z,101692.53
2022-10-28T16:34:43.197Z,101696.47
2022-10-28T16:37:23.963Z,101712.81
2022-10-28T16:39:50.977Z,101699.69
2022-10-28T16:42:18.911Z,101704.97
2022-10-28T16:44:45.671Z,101712.53
2022-10-28T16:47:14.388Z,101714.19
2022-10-28T16:49:41.880Z,101710.38
2022-10-28T16:52:15.449Z,101707.53
2022-10-28T16:54:42.510Z,101714.41
2022-10-28T16:57:09.365Z,101716.88
2022-10-28T16:59:36.259Z,101723.03
2022-10-28T17:02:03.346Z,101719.63
2022-10-28T17:04:30.895Z,101718.19
2022-10-28T17:06:59.236Z,101711.72
2022-10-28T17:09:26.056Z,101719.06
2022-10-28T17:11:53.729Z,101706.91
2022-10-28T17:14:20.598Z,101725.44
2022-10-28T17:16:47.363Z,101746.03
2022-10-28T17:19:16.904Z,101739.13
2022-10-28T17:21:55.893Z,101729.41
2022-10-28T17:24:25.594Z,101720.88
2022-10-28T17:30:45.098Z,101729.31
2022-10-28T17:33:21.497Z,101727.09
2022-10-28T17:35:49.829Z,101763.72
2022-10-28T17:38:17.174Z,101749.88
2022-10-28T17:40:47.185Z,101758.44
2022-10-28T17:43:15.368Z,101781.59
2022-10-28T17:45:43.744Z,101773.09
2022-10-28T17:48:11.270Z,101755.78
2022-10-28T17:50:38.561Z,101762.91
2022-10-28T17:53:05.494Z,101790.56
2022-10-28T17:55:32.750Z,101758.03
2022-10-28T17:58:02.966Z,101789.56
2022-10-28T18:00:30.526Z,101781.22
2022-10-28T18:02:59.955Z,101787.72
2022-10-28T18:05:27.836Z,101786.94
2022-10-28T18:07:55.094Z,101771.09
2022-10-28T18:10:22.126Z,101786.13
2022-10-28T18:12:52.432Z,101804.19
2022-10-28T18:15:19.563Z,101800.75
2022-10-28T18:17:51.462Z,101803.41
2022-10-28T18:20:20.332Z,101796.28
2022-10-28T18:22:47.081Z,101807.06
2022-10-28T18:25:14.008Z,101805.44
2022-10-28T18:27:41.302Z,101809.72
2022-10-28T18:30:08.727Z,101804.41
2022-10-28T18:32:35.443Z,101819.66
2022-10-28T18:35:02.261Z,101805.22
2022-10-28T18:37:29.017Z,101820.28
2022-10-28T18:39:55.728Z,101832.66
2022-10-28T18:42:22.476Z,101826.78
2022-10-28T18:44:52.434Z,101824.56
2022-10-28T18:47:19.399Z,101826.56
2022-10-28T18:49:46.286Z,101810.13
2022-10-28T18:52:13.174Z,101809.06
2022-10-28T18:54:45.424Z,101822.31
2022-10-28T18:57:13.746Z,101823.31
2022-10-28T19:00:05.156Z,101822.50
2022-10-28T19:02:28.866Z,101832.06
2022-10-28T19:04:55.869Z,101845.88
2022-10-28T19:07:22.980Z,101843.44
2022-10-28T19:09:49.953Z,101839.19
2022-10-28T19:12:17.020Z,101834.50
2022-10-28T19:14:43.927Z,101830.44
2022-10-28T19:17:12.014Z,101816.19
2022-10-28T19:19:39.486Z,101812.50
2022-10-28T19:22:08.262Z,101835.69
2022-10-28T19:24:35.262Z,101838.13
2022-10-28T19:27:04.653Z,101853.34
2022-10-28T19:29:33.542Z,101855.78
2022-10-28T19:32:00.730Z,101848.69
2022-10-28T19:34:28.003Z,101838.69
2022-10-28T19:36:55.037Z,101831.94
2022-10-28T19:39:21.792Z,101820.66
2022-10-28T19:41:50.437Z,101832.19
2022-10-28T19:44:17.151Z,101839.94
2022-10-28T19:46:44.105Z,101852.31
2022-10-28T19:49:11.056Z,101857.75
2022-10-28T19:51:41.235Z,101874.50
2022-10-28T19:54:11.783Z,101868.22
2022-10-28T19:56:39.462Z,101881.72
2022-10-28T19:59:07.136Z,101876.44
2022-10-28T20:01:38.370Z,101885.03
2022-10-28T20:04:06.384Z,101890.53
2022-10-28T20:06:37.118Z,101893.78
2022-10-28T20:09:04.684Z,101909.22
2022-10-28T20:11:34.397Z,101880.72
2022-10-28T20:14:08.922Z,101900.69
2022-10-28T20:16:36.321Z,101905.97
2022-10-28T20:19:03.644Z,101914.94
2022-10-28T20:21:34.483Z,101910.44
2022-10-28T20:24:01.514Z,101912.06
2022-10-28T20:26:33.235Z,101904.53
2022-10-28T20:29:03.070Z,101914.72
2022-10-28T20:31:32.404Z,101896.34
2022-10-28T20:34:03.587Z,101903.06
2022-10-28T20:36:35.485Z,101929.94
2022-10-28T20:39:11.401Z,101921.19
2022-10-28T20:41:39.886Z,101929.91
2022-10-28T20:44:10.112Z,101924.78
2022-10-28T20:46:37.387Z,101927.63
2022-10-28T20:49:05.122Z,101936.56
2022-10-28T20:51:33.549Z,101913.91
2022-10-28T20:54:02.020Z,101926.91
2022-10-28T20:56:40.232Z,101932.97
2022-10-28T20:59:07.987Z,101917.59
2022-10-28T21:01:38.022Z,101919.53
2022-10-28T21:04:08.887Z,101933.88
2022-10-28T21:06:36.668Z,101937.53
2022-10-28T21:09:05.814Z,101915.34
2022-10-28T21:11:35.417Z,101929.28
2022-10-28T21:14:02.608Z,101945.78
2022-10-28T21:16:30.709Z,101941.84
2022-10-28T21:18:59.426Z,101943.78
2022-10-28T21:21:29.689Z,101942.84
2022-10-28T21:23:56.534Z,101931.16
2022-10-28T21:26:23.530Z,101938.22
2022-10-28T21:28:52.003Z,101935.31
2022-10-28T21:31:20.063Z,101917.91
2022-10-28T21:33:47.590Z,101930.91
2022-10-28T21:36:16.986Z,101909.63
2022-10-28T21:38:44.603Z,101915.41
2022-10-28T21:41:21.709Z,101923.50
2022-10-28T21:43:50.345Z,101940.69
2022-10-28T21:46:21.754Z,101929.34
2022-10-28T21:48:49.112Z,101922.53
2022-10-28T21:51:17.151Z,101928.88
2022-10-28T21:53:45.162Z,101909.75
2022-10-28T21:56:20.070Z,101944.41
2022-10-28T21:58:52.348Z,101938.69
2022-10-28T22:01:24.428Z,101922.44
2022-10-28T22:03:54.685Z,101942.31
2022-10-28T22:06:24.696Z,101940.03
2022-10-28T22:08:59.440Z,101947.38
2022-10-28T22:11:31.307Z,101929.22
2022-10-28T22:14:00.659Z,101920.59
2022-10-28T22:16:29.824Z,101934.56
2022-10-28T22:18:58.907Z,101957.09
2022-10-28T22:21:28.324Z,101938.78
2022-10-28T22:23:55.456Z,101936.78
2022-10-28T22:26:25.475Z,101943.50
2022-10-28T22:28:55.843Z,101951.09
2022-10-28T22:31:25.629Z,101955.72
2022-10-28T22:33:53.155Z,101954.97
2022-10-28T22:36:23.010Z,101940.78
2022-10-28T22:38:50.535Z,101969.38
2022-10-28T22:41:26.346Z,101970.31
2022-10-28T22:43:55.813Z,101984.38
2022-10-28T22:46:28.064Z,101968.13
2022-10-28T22:48:55.239Z,101959.94
2022-10-28T22:51:22.729Z,101956.81
2022-10-28T22:53:49.870Z,101968.25
2022-10-28T22:56:21.911Z,101945.72
2022-10-28T22:58:53.865Z,101950.53
2022-10-28T23:01:21.690Z,101929.56
2022-10-28T23:03:50.906Z,101941.28
2022-10-28T23:06:21.075Z,101926.00
2022-10-28T23:08:48.158Z,101959.66
2022-10-28T23:11:17.875Z,101953.84
2022-10-28T23:13:44.816Z,101953.63
2022-10-28T23:16:15.891Z,101964.44
2022-10-28T23:18:43.867Z,101951.00
2022-10-28T23:21:19.155Z,101944.56
2022-10-28T23:23:51.108Z,101963.94
2022-10-28T23:26:21.735Z,101959.50
2022-10-28T23:28:56.709Z,101979.09
2022-10-28T23:31:23.680Z,101975.47
2022-10-28T23:33:51.379Z,101962.84
2022-10-28T23:36:19.224Z,101950.88
2022-10-28T23:38:46.060Z,101953.13
2022-10-28T23:41:16.244Z,101960.66
2022-10-28T23:43:43.148Z,101953.56
2022-10-28T23:46:11.647Z,101963.09
2022-10-28T23:48:38.842Z,101952.00
2022-10-28T23:51:06.419Z,101944.91
2022-10-28T23:53:33.684Z,101960.44
2022-10-28T23:56:00.669Z,101958.69
2022-10-28T23:58:27.484Z,101954.53
